createdAt,value
2022-11-16T00:01:48.000Z,29.02
2022-11-16T00:04:03.000Z,31.27
2022-11-16T00:06:29.000Z,31.63
2022-11-16T00:08:54.000Z,33.7
2022-11-16T00:11:21.000Z,31.87
2022-11-16T00:13:47.000Z,35.95
2022-11-16T00:16:11.000Z,36.07
2022-11-16T00:18:37.000Z,36.2
2022-11-16T00:21:03.000Z,40.85
2022-11-16T00:23:29.000Z,41.73
2022-11-16T00:25:56.000Z,40.53
2022-11-16T00:28:20.000Z,41.8
2022-11-16T00:30:46.000Z,43.43
2022-11-16T00:33:12.000Z,43
2022-11-16T00:35:37.000Z,47.17
2022-11-16T00:38:03.000Z,43.65
2022-11-16T00:40:30.000Z,45.37
2022-11-16T00:42:55.000Z,47.4
2022-11-16T00:45:21.000Z,43.75
2022-11-16T00:47:45.000Z,47.33
2022-11-16T00:50:12.000Z,46.97
2022-11-16T00:52:37.000Z,47
2022-11-16T00:55:08.000Z,46.6
2022-11-16T00:57:29.000Z,44.3
2022-11-16T00:59:54.000Z,47.7
2022-11-16T01:02:20.000Z,44.77
2022-11-16T01:04:45.000Z,48.87
2022-11-16T01:07:12.000Z,45.95
2022-11-16T01:09:38.000Z,48.5
2022-11-16T01:12:03.000Z,47.8
2022-11-16T01:14:29.000Z,48.68
2022-11-16T01:16:55.000Z,47.15
2022-11-16T01:19:21.000Z,49.7
2022-11-16T01:21:46.000Z,49.3
2022-11-16T01:24:13.000Z,48.5
2022-11-16T01:26:38.000Z,42.93
2022-11-16T01:29:03.000Z,39.33
2022-11-16T01:31:29.000Z,35.7
2022-11-16T01:33:55.000Z,39.7
2022-11-16T01:36:21.000Z,40.73
2022-11-16T01:38:47.000Z,29.52
2022-11-16T01:41:14.000Z,23.37
2022-11-16T01:43:38.000Z,16.77
2022-11-16T01:46:04.000Z,14.8
2022-11-16T01:48:29.000Z,7.55
2022-11-16T01:50:55.000Z,12.23
2022-11-16T01:53:20.000Z,8.47
2022-11-16T01:55:46.000Z,8.83
2022-11-16T01:58:12.000Z,5.4
2022-11-16T02:00:48.000Z,7.23
2022-11-16T02:03:03.000Z,4.57
2022-11-16T02:05:29.000Z,5.45
2022-11-16T02:07:55.000Z,4.22
2022-11-16T02:10:21.000Z,5.5
2022-11-16T02:12:46.000Z,4.6
2022-11-16T02:15:12.000Z,4.97
2022-11-16T02:17:38.000Z,3.98
2022-11-16T02:20:04.000Z,3.7
2022-11-16T02:22:30.000Z,3.23
2022-11-16T02:24:55.000Z,4
2022-11-16T02:27:21.000Z,4.33
2022-11-16T02:29:47.000Z,4.08
2022-11-16T02:32:12.000Z,3.8
2022-11-16T02:34:38.000Z,3.93
2022-11-16T02:37:03.000Z,4
2022-11-16T02:39:29.000Z,4.7
2022-11-16T02:41:56.000Z,4.42
2022-11-16T02:44:21.000Z,4.6
2022-11-16T02:46:47.000Z,4.87
2022-11-16T02:49:13.000Z,4.72
2022-11-16T02:51:38.000Z,4.85
2022-11-16T02:54:04.000Z,4.9
2022-11-16T02:56:31.000Z,4.2
2022-11-16T02:58:56.000Z,4.62
2022-11-16T03:01:35.000Z,5.12
2022-11-16T03:03:48.000Z,4.97
2022-11-16T03:06:14.000Z,5.63
2022-11-16T03:08:40.000Z,4.83
2022-11-16T03:11:06.000Z,4.9
2022-11-16T03:13:31.000Z,5.3
2022-11-16T03:15:56.000Z,5.1
2022-11-16T03:18:22.000Z,4.65
2022-11-16T03:20:48.000Z,5.2
2022-11-16T03:23:15.000Z,4.7
2022-11-16T03:25:39.000Z,8.78
2022-11-16T03:28:05.000Z,8.48
2022-11-16T03:30:31.000Z,6.8
2022-11-16T03:32:56.000Z,4.7
2022-11-16T03:35:23.000Z,4.83
2022-11-16T03:37:49.000Z,4.92
2022-11-16T03:40:17.000Z,4.87
2022-11-16T03:42:40.000Z,5.33
2022-11-16T03:45:07.000Z,5.4
2022-11-16T03:47:33.000Z,5.42
2022-11-16T03:49:57.000Z,5.6
2022-11-16T03:52:23.000Z,5.72
2022-11-16T03:54:49.000Z,5.2
2022-11-16T03:57:14.000Z,4.57
2022-11-16T03:59:46.000Z,4.4
2022-11-16T04:02:07.000Z,5.08
2022-11-16T04:04:32.000Z,5.1
2022-11-16T04:06:58.000Z,5.13
2022-11-16T04:09:25.000Z,5.2
2022-11-16T04:11:51.000Z,5.7
2022-11-16T04:14:18.000Z,5.28
2022-11-16T04:16:42.000Z,5.33
2022-11-16T04:19:09.000Z,5.42
2022-11-16T04:21:34.000Z,4.9
2022-11-16T04:24:00.000Z,4.95
2022-11-16T04:26:26.000Z,4.87
2022-11-16T04:28:51.000Z,5
2022-11-16T04:31:18.000Z,5.72
2022-11-16T04:33:43.000Z,5.33
2022-11-16T04:36:11.000Z,5.4
2022-11-16T04:38:35.000Z,5.62
2022-11-16T04:41:02.000Z,5.6
2022-11-16T04:43:27.000Z,5.5
2022-11-16T04:45:53.000Z,5.2
2022-11-16T04:48:19.000Z,5.6
2022-11-16T04:50:47.000Z,5.8
2022-11-16T04:53:13.000Z,5.47
2022-11-16T04:55:39.000Z,5.35
2022-11-16T04:58:04.000Z,5.2
2022-11-16T05:00:39.000Z,5.3
2022-11-16T05:02:55.000Z,5.1
2022-11-16T05:05:22.000Z,5
2022-11-16T05:07:47.000Z,5.17
2022-11-16T05:10:13.000Z,5.27
2022-11-16T05:12:39.000Z,5.53
2022-11-16T05:15:05.000Z,5.17
2022-11-16T05:17:31.000Z,5.3
2022-11-16T05:19:56.000Z,5.78
2022-11-16T05:22:22.000Z,5.47
2022-11-16T05:24:47.000Z,5.33
2022-11-16T05:27:13.000Z,5.37
2022-11-16T05:29:40.000Z,5.9
2022-11-16T05:32:10.000Z,5.6
2022-11-16T05:34:31.000Z,5.47
2022-11-16T05:36:57.000Z,4.28
2022-11-16T05:39:23.000Z,4.5
2022-11-16T05:41:48.000Z,4.85
2022-11-16T05:44:15.000Z,4.83
2022-11-16T05:46:40.000Z,4.45
2022-11-16T05:49:06.000Z,4.8
2022-11-16T05:51:34.000Z,4.7
2022-11-16T05:54:02.000Z,4.1
2022-11-16T05:58:53.000Z,4.17
2022-11-16T06:01:57.000Z,3.9
2022-11-16T06:03:53.000Z,4.03
2022-11-16T06:06:12.000Z,4.42
2022-11-16T06:08:37.000Z,4.58
2022-11-16T06:11:03.000Z,4.87
2022-11-16T06:13:28.000Z,4.7
2022-11-16T06:15:54.000Z,4.27
2022-11-16T06:18:21.000Z,3.92
2022-11-16T06:20:46.000Z,3.92
2022-11-16T06:23:12.000Z,4.4
2022-11-16T06:25:42.000Z,3.87
2022-11-16T06:28:03.000Z,3.8
2022-11-16T06:30:29.000Z,3.9
2022-11-16T06:32:56.000Z,3.42
2022-11-16T06:35:22.000Z,3.77
2022-11-16T06:37:48.000Z,2.8
2022-11-16T06:40:16.000Z,3.5
2022-11-16T06:42:41.000Z,3
2022-11-16T06:45:06.000Z,2.9
2022-11-16T06:47:33.000Z,3.12
2022-11-16T06:49:58.000Z,2.85
2022-11-16T06:52:25.000Z,2.7
2022-11-16T06:54:52.000Z,3.37
2022-11-16T06:57:17.000Z,3.3
2022-11-16T06:59:54.000Z,2.83
2022-11-16T07:02:15.000Z,3.58
2022-11-16T07:04:40.000Z,3.2
2022-11-16T07:07:06.000Z,3.7
2022-11-16T07:09:33.000Z,3.9
2022-11-16T07:11:59.000Z,4.2
2022-11-16T07:14:25.000Z,4
2022-11-16T07:16:51.000Z,4.6
2022-11-16T07:19:18.000Z,5.65
2022-11-16T07:21:46.000Z,6.62
2022-11-16T07:26:36.000Z,6.8
2022-11-16T07:29:03.000Z,6.9
2022-11-16T07:31:29.000Z,7.8
2022-11-16T07:33:54.000Z,8.38
2022-11-16T07:36:22.000Z,8.9
2022-11-16T07:38:48.000Z,9.28
2022-11-16T07:41:14.000Z,9.57
2022-11-16T07:43:41.000Z,9.2
2022-11-16T07:46:07.000Z,9.78
2022-11-16T07:48:33.000Z,10.38
2022-11-16T07:50:57.000Z,11.35
2022-11-16T07:53:25.000Z,13.88
2022-11-16T07:55:51.000Z,16.4
2022-11-16T07:58:17.000Z,16.4
2022-11-16T08:00:58.000Z,19.5
2022-11-16T08:03:09.000Z,18.7
2022-11-16T08:05:35.000Z,19.62
2022-11-16T08:08:00.000Z,19.17
2022-11-16T08:10:27.000Z,17.8
2022-11-16T08:12:52.000Z,18.67
2022-11-16T08:15:21.000Z,18.3
2022-11-16T08:17:50.000Z,19.85
2022-11-16T08:20:17.000Z,19.55
2022-11-16T08:22:42.000Z,19.35
2022-11-16T08:25:09.000Z,20.9
2022-11-16T08:27:34.000Z,19.1
2022-11-16T08:30:00.000Z,18.45
2022-11-16T08:32:28.000Z,17.35
2022-11-16T08:34:56.000Z,18.15
2022-11-16T08:37:29.000Z,16.97
2022-11-16T08:39:55.000Z,17.6
2022-11-16T08:42:22.000Z,18.05
2022-11-16T08:44:49.000Z,18.45
2022-11-16T08:47:16.000Z,17.65
2022-11-16T08:49:41.000Z,16.25
2022-11-16T08:52:09.000Z,14.28
2022-11-16T08:54:34.000Z,13.8
2022-11-16T08:57:03.000Z,12.47
2022-11-16T08:59:36.000Z,12.23
2022-11-16T09:04:29.000Z,12.78
2022-11-16T09:06:54.000Z,12.9
2022-11-16T09:09:21.000Z,13.3
2022-11-16T09:11:47.000Z,13.45
2022-11-16T09:14:13.000Z,12.53
2022-11-16T09:16:39.000Z,13.15
2022-11-16T09:19:05.000Z,12.63
2022-11-16T09:21:31.000Z,13.75
2022-11-16T09:23:56.000Z,14.03
2022-11-16T09:26:22.000Z,13.93
2022-11-16T09:28:48.000Z,14.67
2022-11-16T09:31:14.000Z,14.58
2022-11-16T09:33:40.000Z,14.9
2022-11-16T09:36:08.000Z,16.27
2022-11-16T09:38:34.000Z,15.68
2022-11-16T09:40:59.000Z,15.65
2022-11-16T09:43:26.000Z,15.95
2022-11-16T09:45:53.000Z,15.8
2022-11-16T09:48:18.000Z,16.05
2022-11-16T09:50:44.000Z,16.82
2022-11-16T09:53:10.000Z,16.73
2022-11-16T09:55:36.000Z,16.67
2022-11-16T09:58:02.000Z,17.73
2022-11-16T10:00:40.000Z,17.02
2022-11-16T10:02:54.000Z,18.02
2022-11-16T10:05:20.000Z,17.17
2022-11-16T10:07:45.000Z,17.1
2022-11-16T10:10:13.000Z,15.57
2022-11-16T10:12:38.000Z,15.6
2022-11-16T10:15:03.000Z,15.17
2022-11-16T10:17:29.000Z,16.15
2022-11-16T10:19:55.000Z,15.98
2022-11-16T10:22:20.000Z,16.8
2022-11-16T10:24:46.000Z,16.17
2022-11-16T10:27:13.000Z,16.73
2022-11-16T10:29:40.000Z,17.95
2022-11-16T10:32:05.000Z,18.73
2022-11-16T10:34:31.000Z,17.85
2022-11-16T10:36:57.000Z,17.98
2022-11-16T10:39:23.000Z,17.95
2022-11-16T10:41:49.000Z,18.83
2022-11-16T10:44:15.000Z,19.48
2022-11-16T10:46:42.000Z,18.4
2022-11-16T10:49:13.000Z,18.52
2022-11-16T10:51:40.000Z,18.4
2022-11-16T10:54:06.000Z,22.6
2022-11-16T10:56:34.000Z,20.45
2022-11-16T10:59:00.000Z,22.7
2022-11-16T11:01:31.000Z,21.95
2022-11-16T11:03:52.000Z,24.37
2022-11-16T11:06:19.000Z,25.07
2022-11-16T11:08:43.000Z,26.57
2022-11-16T11:11:09.000Z,26.95
2022-11-16T11:13:36.000Z,27.05
2022-11-16T11:16:03.000Z,27.98
2022-11-16T11:18:28.000Z,27.32
2022-11-16T11:20:54.000Z,27.9
2022-11-16T11:23:22.000Z,27.6
2022-11-16T11:25:47.000Z,26.8
2022-11-16T11:28:13.000Z,25.12
2022-11-16T11:30:42.000Z,24.37
2022-11-16T11:33:08.000Z,23.47
2022-11-16T11:35:43.000Z,23.75
2022-11-16T11:39:27.000Z,24
2022-11-16T11:40:32.000Z,24.25
2022-11-16T11:42:59.000Z,24.13
2022-11-16T11:45:26.000Z,22.82
2022-11-16T11:47:52.000Z,23.3
2022-11-16T11:50:22.000Z,23.73
2022-11-16T11:52:48.000Z,23.55
2022-11-16T11:55:16.000Z,23.95
2022-11-16T11:57:44.000Z,23.85
2022-11-16T12:00:23.000Z,22.52
2022-11-16T12:02:54.000Z,22.87
2022-11-16T12:05:07.000Z,23
2022-11-16T12:07:33.000Z,22.4
2022-11-16T12:10:02.000Z,23.62
2022-11-16T12:12:28.000Z,23.25
2022-11-16T12:14:56.000Z,22.75
2022-11-16T12:17:23.000Z,23.85
2022-11-16T12:19:52.000Z,24.1
2022-11-16T12:22:18.000Z,24.55
2022-11-16T12:24:47.000Z,23.6
2022-11-16T12:32:16.000Z,23.85
2022-11-16T12:34:42.000Z,24.2
2022-11-16T12:37:10.000Z,23.47
2022-11-16T12:39:37.000Z,24.18
2022-11-16T12:42:05.000Z,22.8
2022-11-16T12:44:30.000Z,24.1
2022-11-16T12:52:01.000Z,22.77
2022-11-16T12:54:30.000Z,23.67
2022-11-16T12:56:55.000Z,24.4
2022-11-16T12:59:35.000Z,24.1
2022-11-16T13:02:10.000Z,25.48
2022-11-16T13:06:56.000Z,25.37
2022-11-16T13:09:26.000Z,24.92
2022-11-16T13:12:00.000Z,24.9
2022-11-16T13:14:27.000Z,24.95
2022-11-16T13:19:28.000Z,24.98
2022-11-16T13:21:58.000Z,24.55
2022-11-16T13:24:29.000Z,25.1
2022-11-16T13:29:26.000Z,25.27
2022-11-16T13:31:52.000Z,25.2
2022-11-16T13:34:22.000Z,26.62
2022-11-16T13:39:31.000Z,25.3
2022-11-16T13:42:00.000Z,25.92
2022-11-16T13:44:31.000Z,26.27
2022-11-16T13:46:59.000Z,25.27
2022-11-16T13:49:27.000Z,25.43
2022-11-16T13:51:52.000Z,25.1
2022-11-16T13:54:21.000Z,25.37
2022-11-16T13:56:47.000Z,25.27
2022-11-16T13:59:19.000Z,26.1
2022-11-16T14:01:58.000Z,26.27
2022-11-16T14:04:22.000Z,26.82
2022-11-16T14:06:49.000Z,26.9
2022-11-16T14:09:20.000Z,28.23
2022-11-16T14:11:49.000Z,28.1
2022-11-16T14:14:15.000Z,29.35
2022-11-16T14:16:43.000Z,28.57
2022-11-16T14:26:42.000Z,29.7
2022-11-16T14:29:03.000Z,29.72
2022-11-16T14:31:28.000Z,30.6
2022-11-16T14:33:55.000Z,31.3
2022-11-16T14:36:21.000Z,31.02
2022-11-16T14:38:47.000Z,31.3
2022-11-16T14:41:13.000Z,33.73
2022-11-16T14:43:39.000Z,32.1
2022-11-16T14:46:07.000Z,31.9
2022-11-16T14:48:32.000Z,32.33
2022-11-16T14:51:00.000Z,33
2022-11-16T14:53:26.000Z,31
2022-11-16T14:55:51.000Z,29.3
2022-11-16T14:58:18.000Z,29.33
2022-11-16T15:00:59.000Z,28.65
2022-11-16T15:03:13.000Z,28.6
2022-11-16T15:05:41.000Z,28.53
2022-11-16T15:08:08.000Z,28.07
2022-11-16T15:10:33.000Z,29.45
2022-11-16T15:12:58.000Z,28.2
2022-11-16T15:15:24.000Z,27.48
2022-11-16T15:17:50.000Z,27.67
2022-11-16T15:20:16.000Z,27.43
2022-11-16T15:22:42.000Z,27.33
2022-11-16T15:25:08.000Z,27.62
2022-11-16T15:27:33.000Z,27.87
2022-11-16T15:29:59.000Z,27.75
2022-11-16T15:32:25.000Z,27.85
2022-11-16T15:34:52.000Z,26.82
2022-11-16T15:37:18.000Z,26.57
2022-11-16T15:39:45.000Z,27
2022-11-16T15:42:10.000Z,27.82
2022-11-16T15:44:36.000Z,27.07
2022-11-16T15:47:02.000Z,26.5
2022-11-16T15:49:28.000Z,26.4
2022-11-16T15:51:55.000Z,27.2
2022-11-16T15:54:21.000Z,26.53
2022-11-16T15:56:46.000Z,26.4
2022-11-16T15:59:12.000Z,25.92
2022-11-16T16:02:19.000Z,26.02
2022-11-16T16:04:04.000Z,26.07
2022-11-16T16:06:29.000Z,26.9
2022-11-16T16:08:54.000Z,26.1
2022-11-16T16:11:24.000Z,26.73
2022-11-16T16:13:46.000Z,26.7
2022-11-16T16:16:13.000Z,26.6
2022-11-16T16:33:39.000Z,27.57
2022-11-16T16:36:03.000Z,27.57
2022-11-16T16:38:28.000Z,27.73
2022-11-16T16:40:53.000Z,27.6
2022-11-16T16:43:20.000Z,28.13
2022-11-16T16:45:46.000Z,28
2022-11-16T16:48:12.000Z,27.65
2022-11-16T16:50:39.000Z,26.77
2022-11-16T16:53:05.000Z,27.53
2022-11-16T16:55:29.000Z,27.57
2022-11-16T16:57:55.000Z,27.33
2022-11-16T17:00:31.000Z,27.2
2022-11-16T17:02:47.000Z,27.67
2022-11-16T17:05:13.000Z,26.75
2022-11-16T17:07:39.000Z,27.27
2022-11-16T17:10:05.000Z,27.63
2022-11-16T17:12:30.000Z,27.2
2022-11-16T17:14:57.000Z,26.95
2022-11-16T17:17:22.000Z,25.72
2022-11-16T17:19:48.000Z,27.35
2022-11-16T17:22:22.000Z,25.85
2022-11-16T17:24:39.000Z,26.1
2022-11-16T17:27:06.000Z,26.37
2022-11-16T17:29:31.000Z,25.63
2022-11-16T17:31:56.000Z,25.77
2022-11-16T17:34:23.000Z,25.77
2022-11-16T17:36:48.000Z,25.65
2022-11-16T17:39:14.000Z,25.7
2022-11-16T17:41:40.000Z,25.7
2022-11-16T17:44:06.000Z,26.03
2022-11-16T17:46:32.000Z,25.53
2022-11-16T17:48:57.000Z,25.25
2022-11-16T17:51:23.000Z,24.92
2022-11-16T17:53:49.000Z,26.12
2022-11-16T17:56:15.000Z,25.8
2022-11-16T17:58:41.000Z,26.13
2022-11-16T18:01:09.000Z,26.3
2022-11-16T18:03:32.000Z,26.13
2022-11-16T18:05:58.000Z,25.65
2022-11-16T18:08:25.000Z,25.23
2022-11-16T18:10:50.000Z,24.92
2022-11-16T18:13:17.000Z,25.92
2022-11-16T18:15:42.000Z,25.57
2022-11-16T18:18:08.000Z,25.3
2022-11-16T18:20:33.000Z,24.97
2022-11-16T18:22:59.000Z,25.8
2022-11-16T18:25:26.000Z,24.85
2022-11-16T18:27:50.000Z,27.42
2022-11-16T18:30:18.000Z,27.1
2022-11-16T18:32:43.000Z,27.37
2022-11-16T18:35:11.000Z,28.6
2022-11-16T18:39:59.000Z,27.3
2022-11-16T18:40:02.000Z,26.9
2022-11-16T18:42:25.000Z,26.95
2022-11-16T18:44:51.000Z,25.7
2022-11-16T18:47:18.000Z,25.62
2022-11-16T18:49:44.000Z,26.17
2022-11-16T18:52:08.000Z,25.9
2022-11-16T18:54:35.000Z,24.72
2022-11-16T18:57:00.000Z,24.73
2022-11-16T18:59:32.000Z,25.13
2022-11-16T19:01:51.000Z,25.77
2022-11-16T19:04:17.000Z,25.68
2022-11-16T19:06:43.000Z,25.82
2022-11-16T19:09:09.000Z,26.13
2022-11-16T19:11:34.000Z,27.13
2022-11-16T19:14:00.000Z,28.85
2022-11-16T19:16:26.000Z,29.5
2022-11-16T19:18:53.000Z,29.6
2022-11-16T19:21:18.000Z,30.77
2022-11-16T19:23:43.000Z,30.87
2022-11-16T19:26:10.000Z,30
2022-11-16T19:31:02.000Z,32.2
2022-11-16T19:33:27.000Z,32.25
2022-11-16T19:35:52.000Z,32.35
2022-11-16T19:38:19.000Z,33.3
2022-11-16T19:40:44.000Z,32.43
2022-11-16T19:43:09.000Z,31.57
2022-11-16T19:45:38.000Z,30.6
2022-11-16T19:48:01.000Z,30.15
2022-11-16T19:50:28.000Z,29.57
2022-11-16T19:52:54.000Z,29.93
2022-11-16T19:55:20.000Z,28.02
2022-11-16T19:57:45.000Z,28.32
2022-11-16T20:00:19.000Z,27.67
2022-11-16T20:02:40.000Z,25.93
2022-11-16T20:05:02.000Z,25.73
2022-11-16T20:07:28.000Z,25.62
2022-11-16T20:09:53.000Z,24.52
2022-11-16T20:12:20.000Z,24.8
2022-11-16T20:14:46.000Z,24.57
2022-11-16T20:17:12.000Z,24.57
2022-11-16T20:19:37.000Z,23.85
2022-11-16T20:22:03.000Z,23.38
2022-11-16T20:24:28.000Z,23.47
2022-11-16T20:26:54.000Z,23.7
2022-11-16T20:29:19.000Z,23.85
2022-11-16T20:31:45.000Z,23.92
2022-11-16T20:34:12.000Z,24.83
2022-11-16T20:36:37.000Z,25.07
2022-11-16T20:39:03.000Z,25.12
2022-11-16T20:41:29.000Z,24.07
2022-11-16T20:43:54.000Z,24.87
2022-11-16T20:46:20.000Z,25.17
2022-11-16T20:48:47.000Z,24.93
2022-11-16T20:51:12.000Z,24.57
2022-11-16T20:53:37.000Z,23.77
2022-11-16T20:56:04.000Z,22.6
2022-11-16T20:58:29.000Z,22.48
2022-11-16T21:00:54.000Z,22.1
2022-11-16T21:03:20.000Z,22.63
2022-11-16T21:05:47.000Z,22.5
2022-11-16T21:08:12.000Z,23.83
2022-11-16T21:10:38.000Z,22.77
2022-11-16T21:13:04.000Z,23.47
2022-11-16T21:15:29.000Z,23.27
2022-11-16T21:17:55.000Z,23.4
2022-11-16T21:20:21.000Z,25
2022-11-16T21:22:47.000Z,24.37
2022-11-16T21:25:13.000Z,24.25
2022-11-16T21:27:39.000Z,24.57
2022-11-16T21:30:06.000Z,25.48
2022-11-16T21:32:30.000Z,25.67
2022-11-16T21:34:56.000Z,25.97
2022-11-16T21:37:25.000Z,25.95
2022-11-16T21:39:47.000Z,25.27
2022-11-16T21:42:13.000Z,25.32
2022-11-16T21:44:38.000Z,26.1
2022-11-16T21:47:04.000Z,28.9
2022-11-16T21:49:30.000Z,31.27
2022-11-16T21:51:55.000Z,33.08
2022-11-16T21:54:22.000Z,33.05
2022-11-16T21:56:47.000Z,28.52
2022-11-16T21:59:19.000Z,28.77
2022-11-16T22:04:05.000Z,30.02
2022-11-16T22:06:30.000Z,29.25
2022-11-16T22:08:56.000Z,29.37
2022-11-16T22:11:21.000Z,29.43
2022-11-16T22:13:47.000Z,29.53
2022-11-16T22:16:13.000Z,29.77
2022-11-16T22:18:40.000Z,29.02
2022-11-16T22:21:04.000Z,28.4
2022-11-16T22:23:30.000Z,29.63
2022-11-16T22:25:56.000Z,30.48
2022-11-16T22:28:22.000Z,30.52
2022-11-16T22:30:48.000Z,31.35
2022-11-16T22:33:13.000Z,31.77
2022-11-16T22:35:39.000Z,31.13
2022-11-16T22:38:05.000Z,30.32
2022-11-16T22:40:31.000Z,31.4
2022-11-16T22:42:56.000Z,33.02
2022-11-16T22:45:22.000Z,30.97
2022-11-16T22:47:48.000Z,32.17
2022-11-16T22:50:15.000Z,32.38
2022-11-16T22:52:40.000Z,33.35
2022-11-16T22:55:07.000Z,33.13
2022-11-16T22:57:31.000Z,33.43
2022-11-16T22:59:56.000Z,37.83
2022-11-16T23:02:22.000Z,35.1
2022-11-16T23:04:48.000Z,35
2022-11-16T23:07:13.000Z,35.2
2022-11-16T23:09:40.000Z,34.4
2022-11-16T23:12:05.000Z,34.3
2022-11-16T23:14:31.000Z,33.7
2022-11-16T23:16:57.000Z,35.28
2022-11-16T23:19:23.000Z,35.2
2022-11-16T23:21:49.000Z,36.15
2022-11-16T23:24:15.000Z,35.8
2022-11-16T23:26:40.000Z,38.67
2022-11-16T23:29:07.000Z,37.53
2022-11-16T23:31:32.000Z,39.25
2022-11-16T23:33:58.000Z,40.58
2022-11-16T23:36:24.000Z,40.2
2022-11-16T23:38:51.000Z,38.88
2022-11-16T23:41:17.000Z,36.67
2022-11-16T23:43:41.000Z,38.83
2022-11-16T23:46:08.000Z,40.1
2022-11-16T23:48:33.000Z,38.63
2022-11-16T23:50:58.000Z,39.92
2022-11-16T23:53:24.000Z,39.97
2022-11-16T23:55:50.000Z,39.63
2022-11-16T23:58:16.000Z,40.03
